sensor_id;sensor_type;location;lat;lon;timestamp;P1;durP1;ratioP1;P2;durP2;ratioP2
20084;SDS011;10202;48.474;9.138;2024-02-26T00:00:36;0.80;;;0.80;;
20084;SDS011;10202;48.474;9.138;2024-02-26T00:03:02;1.35;;;1.08;;
20084;SDS011;10202;48.474;9.138;2024-02-26T00:05:28;1.40;;;1.05;;
20084;SDS011;10202;48.474;9.138;2024-02-26T00:07:53;1.52;;;1.00;;
20084;SDS011;10202;48.474;9.138;2024-02-26T00:10:24;1.00;;;0.70;;
20084;SDS011;10202;48.474;9.138;2024-02-26T00:12:49;1.30;;;0.90;;
20084;SDS011;10202;48.474;9.138;2024-02-26T00:15:15;2.95;;;1.58;;
20084;SDS011;10202;48.474;9.138;2024-02-26T00:17:40;2.60;;;1.38;;
20084;SDS011;10202;48.474;9.138;2024-02-26T00:20:11;2.58;;;1.00;;
20084;SDS011;10202;48.474;9.138;2024-02-26T00:22:42;1.45;;;1.10;;
20084;SDS011;10202;48.474;9.138;2024-02-26T00:25:10;1.27;;;1.05;;
20084;SDS011;10202;48.474;9.138;2024-02-26T00:27:37;1.38;;;1.05;;
20084;SDS011;10202;48.474;9.138;2024-02-26T00:30:06;2.15;;;1.40;;
20084;SDS011;10202;48.474;9.138;2024-02-26T00:32:37;1.48;;;1.00;;
20084;SDS011;10202;48.474;9.138;2024-02-26T00:35:03;1.50;;;1.00;;
20084;SDS011;10202;48.474;9.138;2024-02-26T00:37:31;1.20;;;0.90;;
20084;SDS011;10202;48.474;9.138;2024-02-26T00:39:59;2.22;;;1.15;;
20084;SDS011;10202;48.474;9.138;2024-02-26T00:42:25;1.48;;;1.20;;
20084;SDS011;10202;48.474;9.138;2024-02-26T00:44:55;2.67;;;1.40;;
20084;SDS011;10202;48.474;9.138;2024-02-26T00:47:21;1.33;;;1.00;;
20084;SDS011;10202;48.474;9.138;2024-02-26T00:49:48;0.95;;;0.95;;
20084;SDS011;10202;48.474;9.138;2024-02-26T00:52:18;1.63;;;0.70;;
20084;SDS011;10202;48.474;9.138;2024-02-26T00:54:46;1.25;;;0.90;;
20084;SDS011;10202;48.474;9.138;2024-02-26T00:57:14;1.40;;;0.80;;
20084;SDS011;10202;48.474;9.138;2024-02-26T00:59:42;1.08;;;0.88;;
20084;SDS011;10202;48.474;9.138;2024-02-26T01:02:12;2.00;;;0.80;;
20084;SDS011;10202;48.474;9.138;2024-02-26T01:04:38;1.48;;;1.17;;
20084;SDS011;10202;48.474;9.138;2024-02-26T01:07:08;1.20;;;1.10;;
20084;SDS011;10202;48.474;9.138;2024-02-26T01:09:34;1.15;;;1.05;;
20084;SDS011;10202;48.474;9.138;2024-02-26T01:11:59;1.20;;;1.00;;
20084;SDS011;10202;48.474;9.138;2024-02-26T01:14:25;1.35;;;1.10;;
20084;SDS011;10202;48.474;9.138;2024-02-26T01:16:56;1.45;;;1.00;;
20084;SDS011;10202;48.474;9.138;2024-02-26T01:19:26;1.77;;;1.00;;
20084;SDS011;10202;48.474;9.138;2024-02-26T01:21:54;1.00;;;0.90;;
20084;SDS011;10202;48.474;9.138;2024-02-26T01:24:21;1.55;;;1.13;;
20084;SDS011;10202;48.474;9.138;2024-02-26T01:26:49;1.83;;;1.13;;
20084;SDS011;10202;48.474;9.138;2024-02-26T01:29:22;1.40;;;1.10;;
20084;SDS011;10202;48.474;9.138;2024-02-26T01:31:47;1.67;;;1.20;;
20084;SDS011;10202;48.474;9.138;2024-02-26T01:34:15;1.50;;;1.00;;
20084;SDS011;10202;48.474;9.138;2024-02-26T01:36:45;2.08;;;1.02;;
20084;SDS011;10202;48.474;9.138;2024-02-26T01:39:14;1.35;;;1.10;;
20084;SDS011;10202;48.474;9.138;2024-02-26T01:41:40;1.55;;;1.00;;
20084;SDS011;10202;48.474;9.138;2024-02-26T01:44:08;1.85;;;1.20;;
20084;SDS011;10202;48.474;9.138;2024-02-26T01:46:34;1.65;;;0.95;;
20084;SDS011;10202;48.474;9.138;2024-02-26T01:48:59;1.45;;;1.10;;
20084;SDS011;10202;48.474;9.138;2024-02-26T01:51:32;0.98;;;0.98;;
20084;SDS011;10202;48.474;9.138;2024-02-26T01:53:59;0.85;;;0.80;;
20084;SDS011;10202;48.474;9.138;2024-02-26T01:56:25;1.55;;;0.90;;
20084;SDS011;10202;48.474;9.138;2024-02-26T01:58:57;1.10;;;0.80;;
20084;SDS011;10202;48.474;9.138;2024-02-26T02:01:27;1.45;;;1.05;;
20084;SDS011;10202;48.474;9.138;2024-02-26T02:04:00;2.35;;;1.10;;
20084;SDS011;10202;48.474;9.138;2024-02-26T02:06:26;2.20;;;0.90;;
20084;SDS011;10202;48.474;9.138;2024-02-26T02:08:55;0.85;;;0.80;;
20084;SDS011;10202;48.474;9.138;2024-02-26T02:11:21;1.20;;;1.10;;
20084;SDS011;10202;48.474;9.138;2024-02-26T02:13:52;0.88;;;0.82;;
20084;SDS011;10202;48.474;9.138;2024-02-26T02:16:22;5.07;;;1.50;;
20084;SDS011;10202;48.474;9.138;2024-02-26T02:18:53;1.33;;;1.05;;
20084;SDS011;10202;48.474;9.138;2024-02-26T02:21:19;1.40;;;1.00;;
20084;SDS011;10202;48.474;9.138;2024-02-26T02:23:44;3.08;;;1.10;;
20084;SDS011;10202;48.474;9.138;2024-02-26T02:26:14;1.10;;;1.02;;
20084;SDS011;10202;48.474;9.138;2024-02-26T02:28:40;1.30;;;1.20;;
20084;SDS011;10202;48.474;9.138;2024-02-26T02:31:11;3.53;;;2.10;;
20084;SDS011;10202;48.474;9.138;2024-02-26T02:33:36;2.33;;;1.80;;
20084;SDS011;10202;48.474;9.138;2024-02-26T02:36:02;7.97;;;3.50;;
20084;SDS011;10202;48.474;9.138;2024-02-26T02:38:31;11.05;;;3.78;;
20084;SDS011;10202;48.474;9.138;2024-02-26T02:40:59;7.35;;;4.28;;
20084;SDS011;10202;48.474;9.138;2024-02-26T02:43:26;4.25;;;2.00;;
20084;SDS011;10202;48.474;9.138;2024-02-26T02:45:57;3.72;;;2.22;;
20084;SDS011;10202;48.474;9.138;2024-02-26T02:48:22;3.15;;;1.50;;
20084;SDS011;10202;48.474;9.138;2024-02-26T02:50:52;1.42;;;1.17;;
20084;SDS011;10202;48.474;9.138;2024-02-26T02:53:18;1.65;;;1.38;;
20084;SDS011;10202;48.474;9.138;2024-02-26T02:55:46;1.60;;;1.50;;
20084;SDS011;10202;48.474;9.138;2024-02-26T02:58:11;3.85;;;1.30;;
20084;SDS011;10202;48.474;9.138;2024-02-26T03:00:39;3.40;;;1.50;;
20084;SDS011;10202;48.474;9.138;2024-02-26T03:03:10;1.40;;;1.30;;
20084;SDS011;10202;48.474;9.138;2024-02-26T03:05:37;2.28;;;1.20;;
20084;SDS011;10202;48.474;9.138;2024-02-26T03:08:05;6.05;;;3.35;;
20084;SDS011;10202;48.474;9.138;2024-02-26T03:10:31;3.40;;;2.17;;
20084;SDS011;10202;48.474;9.138;2024-02-26T03:12:57;2.50;;;1.60;;
20084;SDS011;10202;48.474;9.138;2024-02-26T03:15:22;2.28;;;1.27;;
20084;SDS011;10202;48.474;9.138;2024-02-26T03:17:50;1.63;;;1.20;;
20084;SDS011;10202;48.474;9.138;2024-02-26T03:20:16;1.40;;;1.23;;
20084;SDS011;10202;48.474;9.138;2024-02-26T03:22:44;3.92;;;1.55;;
20084;SDS011;10202;48.474;9.138;2024-02-26T03:25:12;1.83;;;1.40;;
20084;SDS011;10202;48.474;9.138;2024-02-26T03:27:38;1.27;;;1.17;;
20084;SDS011;10202;48.474;9.138;2024-02-26T03:30:05;1.40;;;1.27;;
20084;SDS011;10202;48.474;9.138;2024-02-26T03:32:37;5.50;;;1.33;;
20084;SDS011;10202;48.474;9.138;2024-02-26T03:35:05;1.30;;;1.20;;
20084;SDS011;10202;48.474;9.138;2024-02-26T03:37:34;2.53;;;1.30;;
20084;SDS011;10202;48.474;9.138;2024-02-26T03:40:04;2.70;;;1.27;;
20084;SDS011;10202;48.474;9.138;2024-02-26T03:42:31;1.50;;;1.30;;
20084;SDS011;10202;48.474;9.138;2024-02-26T03:44:58;2.72;;;1.35;;
20084;SDS011;10202;48.474;9.138;2024-02-26T03:47:27;1.27;;;1.17;;
20084;SDS011;10202;48.474;9.138;2024-02-26T03:49:53;1.80;;;1.45;;
20084;SDS011;10202;48.474;9.138;2024-02-26T03:52:23;2.70;;;1.23;;
20084;SDS011;10202;48.474;9.138;2024-02-26T03:54:51;1.23;;;1.10;;
20084;SDS011;10202;48.474;9.138;2024-02-26T03:57:16;8.20;;;1.48;;
20084;SDS011;10202;48.474;9.138;2024-02-26T03:59:42;5.43;;;1.50;;
20084;SDS011;10202;48.474;9.138;2024-02-26T04:02:10;1.88;;;1.05;;
20084;SDS011;10202;48.474;9.138;2024-02-26T04:04:37;1.55;;;1.30;;
20084;SDS011;10202;48.474;9.138;2024-02-26T04:07:03;1.42;;;1.20;;
20084;SDS011;10202;48.474;9.138;2024-02-26T04:09:33;1.15;;;1.05;;
20084;SDS011;10202;48.474;9.138;2024-02-26T04:12:02;1.17;;;1.02;;
20084;SDS011;10202;48.474;9.138;2024-02-26T04:14:30;2.55;;;1.10;;
20084;SDS011;10202;48.474;9.138;2024-02-26T04:16:56;1.40;;;1.00;;
20084;SDS011;10202;48.474;9.138;2024-02-26T04:19:23;3.60;;;1.15;;
20084;SDS011;10202;48.474;9.138;2024-02-26T04:21:49;2.42;;;1.50;;
20084;SDS011;10202;48.474;9.138;2024-02-26T04:24:16;3.63;;;1.40;;
20084;SDS011;10202;48.474;9.138;2024-02-26T04:26:44;1.27;;;1.15;;
20084;SDS011;10202;48.474;9.138;2024-02-26T04:29:12;2.17;;;1.52;;
20084;SDS011;10202;48.474;9.138;2024-02-26T04:31:40;1.85;;;1.13;;
20084;SDS011;10202;48.474;9.138;2024-02-26T04:34:07;1.35;;;1.10;;
20084;SDS011;10202;48.474;9.138;2024-02-26T04:36:35;4.05;;;1.15;;
20084;SDS011;10202;48.474;9.138;2024-02-26T04:39:01;4.53;;;1.63;;
20084;SDS011;10202;48.474;9.138;2024-02-26T04:41:30;7.47;;;2.22;;
20084;SDS011;10202;48.474;9.138;2024-02-26T04:43:55;5.55;;;1.80;;
20084;SDS011;10202;48.474;9.138;2024-02-26T04:46:21;7.35;;;3.53;;
20084;SDS011;10202;48.474;9.138;2024-02-26T04:48:51;6.95;;;3.22;;
20084;SDS011;10202;48.474;9.138;2024-02-26T04:51:16;5.25;;;2.28;;
20084;SDS011;10202;48.474;9.138;2024-02-26T04:53:42;3.92;;;2.10;;
20084;SDS011;10202;48.474;9.138;2024-02-26T04:56:07;6.32;;;2.40;;
20084;SDS011;10202;48.474;9.138;2024-02-26T04:58:38;7.38;;;2.88;;
20084;SDS011;10202;48.474;9.138;2024-02-26T05:01:08;4.50;;;2.00;;
20084;SDS011;10202;48.474;9.138;2024-02-26T05:03:36;5.93;;;2.08;;
20084;SDS011;10202;48.474;9.138;2024-02-26T05:06:04;4.93;;;2.25;;
20084;SDS011;10202;48.474;9.138;2024-02-26T05:08:30;2.75;;;1.65;;
20084;SDS011;10202;48.474;9.138;2024-02-26T05:10:56;3.55;;;2.03;;
20084;SDS011;10202;48.474;9.138;2024-02-26T05:13:27;2.67;;;1.50;;
20084;SDS011;10202;48.474;9.138;2024-02-26T05:15:53;3.40;;;1.50;;
20084;SDS011;10202;48.474;9.138;2024-02-26T05:18:18;4.25;;;2.13;;
20084;SDS011;10202;48.474;9.138;2024-02-26T05:20:44;5.72;;;2.08;;
20084;SDS011;10202;48.474;9.138;2024-02-26T05:23:09;5.78;;;1.83;;
20084;SDS011;10202;48.474;9.138;2024-02-26T05:25:35;3.00;;;1.67;;
20084;SDS011;10202;48.474;9.138;2024-02-26T05:28:05;1.77;;;1.48;;
20084;SDS011;10202;48.474;9.138;2024-02-26T05:30:31;3.47;;;1.55;;
20084;SDS011;10202;48.474;9.138;2024-02-26T05:32:56;2.47;;;1.55;;
20084;SDS011;10202;48.474;9.138;2024-02-26T05:35:22;2.40;;;1.83;;
20084;SDS011;10202;48.474;9.138;2024-02-26T05:37:51;3.03;;;2.15;;
20084;SDS011;10202;48.474;9.138;2024-02-26T05:40:16;4.65;;;2.70;;
20084;SDS011;10202;48.474;9.138;2024-02-26T05:42:44;11.65;;;5.85;;
20084;SDS011;10202;48.474;9.138;2024-02-26T05:45:10;10.20;;;5.07;;
20084;SDS011;10202;48.474;9.138;2024-02-26T05:47:38;8.20;;;4.25;;
20084;SDS011;10202;48.474;9.138;2024-02-26T05:50:08;4.85;;;2.40;;
20084;SDS011;10202;48.474;9.138;2024-02-26T05:52:37;2.95;;;1.90;;
20084;SDS011;10202;48.474;9.138;2024-02-26T05:55:06;2.45;;;1.85;;
20084;SDS011;10202;48.474;9.138;2024-02-26T05:57:34;2.08;;;1.67;;
20084;SDS011;10202;48.474;9.138;2024-02-26T06:00:03;2.72;;;1.90;;
20084;SDS011;10202;48.474;9.138;2024-02-26T06:02:38;1.80;;;1.70;;
20084;SDS011;10202;48.474;9.138;2024-02-26T06:05:06;2.35;;;1.70;;
20084;SDS011;10202;48.474;9.138;2024-02-26T06:07:34;3.28;;;1.50;;
20084;SDS011;10202;48.474;9.138;2024-02-26T06:10:00;1.77;;;1.48;;
20084;SDS011;10202;48.474;9.138;2024-02-26T06:12:27;2.58;;;1.65;;
20084;SDS011;10202;48.474;9.138;2024-02-26T06:14:55;1.50;;;1.40;;
20084;SDS011;10202;48.474;9.138;2024-02-26T06:17:21;1.48;;;1.10;;
20084;SDS011;10202;48.474;9.138;2024-02-26T06:19:50;1.45;;;1.15;;
20084;SDS011;10202;48.474;9.138;2024-02-26T06:22:18;1.30;;;1.20;;
20084;SDS011;10202;48.474;9.138;2024-02-26T06:24:46;2.28;;;1.27;;
20084;SDS011;10202;48.474;9.138;2024-02-26T06:27:16;3.42;;;1.40;;
20084;SDS011;10202;48.474;9.138;2024-02-26T06:29:44;2.20;;;1.60;;
20084;SDS011;10202;48.474;9.138;2024-02-26T06:32:15;2.55;;;1.40;;
20084;SDS011;10202;48.474;9.138;2024-02-26T06:34:43;4.90;;;1.83;;
20084;SDS011;10202;48.474;9.138;2024-02-26T06:37:11;2.53;;;1.70;;
20084;SDS011;10202;48.474;9.138;2024-02-26T06:39:36;8.60;;;4.30;;
20084;SDS011;10202;48.474;9.138;2024-02-26T06:42:06;3.50;;;2.40;;
20084;SDS011;10202;48.474;9.138;2024-02-26T06:44:31;2.22;;;1.90;;
20084;SDS011;10202;48.474;9.138;2024-02-26T06:47:09;3.50;;;1.52;;
20084;SDS011;10202;48.474;9.138;2024-02-26T06:49:39;3.85;;;1.85;;
20084;SDS011;10202;48.474;9.138;2024-02-26T06:52:04;2.22;;;1.75;;
20084;SDS011;10202;48.474;9.138;2024-02-26T06:54:33;5.88;;;4.20;;
20084;SDS011;10202;48.474;9.138;2024-02-26T06:57:01;6.32;;;3.28;;
20084;SDS011;10202;48.474;9.138;2024-02-26T06:59:31;4.53;;;3.30;;
20084;SDS011;10202;48.474;9.138;2024-02-26T07:01:57;7.68;;;4.00;;
20084;SDS011;10202;48.474;9.138;2024-02-26T07:04:22;4.43;;;2.60;;
20084;SDS011;10202;48.474;9.138;2024-02-26T07:06:50;3.25;;;2.53;;
20084;SDS011;10202;48.474;9.138;2024-02-26T07:09:18;1.55;;;1.40;;
20084;SDS011;10202;48.474;9.138;2024-02-26T07:11:43;2.55;;;1.88;;
20084;SDS011;10202;48.474;9.138;2024-02-26T07:14:12;2.00;;;1.63;;
20084;SDS011;10202;48.474;9.138;2024-02-26T07:16:37;1.40;;;1.20;;
20084;SDS011;10202;48.474;9.138;2024-02-26T07:19:03;1.58;;;1.30;;
20084;SDS011;10202;48.474;9.138;2024-02-26T07:21:31;3.33;;;1.30;;
20084;SDS011;10202;48.474;9.138;2024-02-26T07:23:59;2.08;;;1.30;;
20084;SDS011;10202;48.474;9.138;2024-02-26T07:26:25;2.50;;;1.33;;
20084;SDS011;10202;48.474;9.138;2024-02-26T07:28:51;2.97;;;2.42;;
20084;SDS011;10202;48.474;9.138;2024-02-26T07:31:18;3.53;;;2.05;;
20084;SDS011;10202;48.474;9.138;2024-02-26T07:33:49;3.38;;;2.67;;
20084;SDS011;10202;48.474;9.138;2024-02-26T07:36:14;4.32;;;3.38;;
20084;SDS011;10202;48.474;9.138;2024-02-26T07:38:42;3.35;;;2.45;;
20084;SDS011;10202;48.474;9.138;2024-02-26T07:41:10;6.85;;;2.67;;
20084;SDS011;10202;48.474;9.138;2024-02-26T07:43:39;4.72;;;2.15;;
20084;SDS011;10202;48.474;9.138;2024-02-26T07:46:06;7.28;;;3.00;;
20084;SDS011;10202;48.474;9.138;2024-02-26T07:48:36;5.28;;;3.45;;
20084;SDS011;10202;48.474;9.138;2024-02-26T07:51:04;5.97;;;3.67;;
20084;SDS011;10202;48.474;9.138;2024-02-26T07:53:32;3.80;;;3.20;;
20084;SDS011;10202;48.474;9.138;2024-02-26T07:55:58;4.30;;;3.17;;
20084;SDS011;10202;48.474;9.138;2024-02-26T07:58:23;3.83;;;2.60;;
20084;SDS011;10202;48.474;9.138;2024-02-26T08:00:49;2.42;;;1.98;;
20084;SDS011;10202;48.474;9.138;2024-02-26T08:03:15;3.60;;;2.00;;
20084;SDS011;10202;48.474;9.138;2024-02-26T08:05:41;2.30;;;1.75;;
20084;SDS011;10202;48.474;9.138;2024-02-26T08:08:08;4.75;;;2.15;;
20084;SDS011;10202;48.474;9.138;2024-02-26T08:10:34;4.68;;;2.80;;
20084;SDS011;10202;48.474;9.138;2024-02-26T08:13:02;5.28;;;2.70;;
20084;SDS011;10202;48.474;9.138;2024-02-26T08:15:32;2.53;;;1.95;;
20084;SDS011;10202;48.474;9.138;2024-02-26T08:18:02;16.42;;;7.30;;
20084;SDS011;10202;48.474;9.138;2024-02-26T08:20:31;9.57;;;5.53;;
20084;SDS011;10202;48.474;9.138;2024-02-26T08:22:59;3.90;;;2.25;;
20084;SDS011;10202;48.474;9.138;2024-02-26T08:25:27;3.72;;;2.42;;
20084;SDS011;10202;48.474;9.138;2024-02-26T08:27:57;3.95;;;1.58;;
20084;SDS011;10202;48.474;9.138;2024-02-26T08:30:23;3.47;;;1.95;;
20084;SDS011;10202;48.474;9.138;2024-02-26T08:32:49;3.35;;;2.00;;
20084;SDS011;10202;48.474;9.138;2024-02-26T08:35:14;3.63;;;2.20;;
20084;SDS011;10202;48.474;9.138;2024-02-26T08:37:46;3.92;;;1.90;;
20084;SDS011;10202;48.474;9.138;2024-02-26T08:40:14;2.63;;;1.90;;
20084;SDS011;10202;48.474;9.138;2024-02-26T08:42:42;2.00;;;1.80;;
20084;SDS011;10202;48.474;9.138;2024-02-26T08:45:11;2.08;;;1.55;;
20084;SDS011;10202;48.474;9.138;2024-02-26T08:47:37;2.65;;;1.80;;
20084;SDS011;10202;48.474;9.138;2024-02-26T08:50:03;2.30;;;1.88;;
20084;SDS011;10202;48.474;9.138;2024-02-26T08:52:30;2.05;;;1.80;;
20084;SDS011;10202;48.474;9.138;2024-02-26T08:54:56;10.65;;;5.15;;
20084;SDS011;10202;48.474;9.138;2024-02-26T08:57:22;7.78;;;3.47;;
20084;SDS011;10202;48.474;9.138;2024-02-26T08:59:48;3.42;;;2.83;;
20084;SDS011;10202;48.474;9.138;2024-02-26T09:02:13;5.72;;;2.65;;
20084;SDS011;10202;48.474;9.138;2024-02-26T09:04:41;3.38;;;2.33;;
20084;SDS011;10202;48.474;9.138;2024-02-26T09:07:09;7.10;;;2.72;;
20084;SDS011;10202;48.474;9.138;2024-02-26T09:09:35;6.05;;;2.53;;
20084;SDS011;10202;48.474;9.138;2024-02-26T09:12:03;6.45;;;2.78;;
20084;SDS011;10202;48.474;9.138;2024-02-26T09:14:29;6.32;;;2.90;;
20084;SDS011;10202;48.474;9.138;2024-02-26T09:16:54;6.15;;;2.63;;
20084;SDS011;10202;48.474;9.138;2024-02-26T09:19:23;5.45;;;3.13;;
20084;SDS011;10202;48.474;9.138;2024-02-26T09:21:56;16.13;;;3.97;;
20084;SDS011;10202;48.474;9.138;2024-02-26T09:24:23;8.27;;;3.88;;
20084;SDS011;10202;48.474;9.138;2024-02-26T09:26:49;10.07;;;4.05;;
20084;SDS011;10202;48.474;9.138;2024-02-26T09:29:17;7.75;;;3.65;;
20084;SDS011;10202;48.474;9.138;2024-02-26T09:31:43;4.88;;;3.05;;
20084;SDS011;10202;48.474;9.138;2024-02-26T09:34:14;3.35;;;2.28;;
20084;SDS011;10202;48.474;9.138;2024-02-26T09:36:40;3.40;;;2.58;;
20084;SDS011;10202;48.474;9.138;2024-02-26T09:39:06;6.82;;;2.63;;
20084;SDS011;10202;48.474;9.138;2024-02-26T09:41:36;4.18;;;2.80;;
20084;SDS011;10202;48.474;9.138;2024-02-26T09:44:02;4.90;;;2.75;;
20084;SDS011;10202;48.474;9.138;2024-02-26T09:46:30;3.40;;;2.63;;
20084;SDS011;10202;48.474;9.138;2024-02-26T09:48:56;3.72;;;2.47;;
20084;SDS011;10202;48.474;9.138;2024-02-26T09:51:25;3.47;;;2.63;;
20084;SDS011;10202;48.474;9.138;2024-02-26T09:53:51;9.25;;;2.90;;
20084;SDS011;10202;48.474;9.138;2024-02-26T09:56:18;6.13;;;3.05;;
20084;SDS011;10202;48.474;9.138;2024-02-26T09:58:44;4.90;;;2.90;;
20084;SDS011;10202;48.474;9.138;2024-02-26T10:01:17;4.05;;;2.70;;
20084;SDS011;10202;48.474;9.138;2024-02-26T10:03:43;8.63;;;3.53;;
20084;SDS011;10202;48.474;9.138;2024-02-26T10:06:10;6.00;;;2.83;;
20084;SDS011;10202;48.474;9.138;2024-02-26T10:08:36;6.95;;;3.50;;
20084;SDS011;10202;48.474;9.138;2024-02-26T10:11:06;6.57;;;3.90;;
20084;SDS011;10202;48.474;9.138;2024-02-26T10:13:34;10.65;;;3.35;;
20084;SDS011;10202;48.474;9.138;2024-02-26T10:16:01;10.35;;;3.00;;
20084;SDS011;10202;48.474;9.138;2024-02-26T10:18:47;6.45;;;3.22;;
20084;SDS011;10202;48.474;9.138;2024-02-26T10:21:15;5.07;;;2.80;;
20084;SDS011;10202;48.474;9.138;2024-02-26T10:23:43;4.95;;;2.85;;
20084;SDS011;10202;48.474;9.138;2024-02-26T10:26:11;5.43;;;3.25;;
20084;SDS011;10202;48.474;9.138;2024-02-26T10:28:43;4.28;;;2.80;;
20084;SDS011;10202;48.474;9.138;2024-02-26T10:31:10;6.53;;;3.25;;
20084;SDS011;10202;48.474;9.138;2024-02-26T10:33:37;5.22;;;3.20;;
20084;SDS011;10202;48.474;9.138;2024-02-26T10:36:06;11.88;;;3.42;;
20084;SDS011;10202;48.474;9.138;2024-02-26T10:38:33;4.15;;;2.83;;
20084;SDS011;10202;48.474;9.138;2024-02-26T10:41:06;10.23;;;3.08;;
20084;SDS011;10202;48.474;9.138;2024-02-26T10:43:33;3.75;;;2.55;;
20084;SDS011;10202;48.474;9.138;2024-02-26T10:45:59;4.15;;;2.72;;
20084;SDS011;10202;48.474;9.138;2024-02-26T10:48:24;5.60;;;3.00;;
20084;SDS011;10202;48.474;9.138;2024-02-26T10:50:53;4.68;;;2.83;;
20084;SDS011;10202;48.474;9.138;2024-02-26T10:53:22;5.07;;;2.70;;
20084;SDS011;10202;48.474;9.138;2024-02-26T10:55:54;5.28;;;3.08;;
20084;SDS011;10202;48.474;9.138;2024-02-26T10:58:22;7.80;;;2.78;;
20084;SDS011;10202;48.474;9.138;2024-02-26T11:00:50;7.75;;;3.13;;
20084;SDS011;10202;48.474;9.138;2024-02-26T11:03:16;4.10;;;2.85;;
20084;SDS011;10202;48.474;9.138;2024-02-26T11:05:45;4.43;;;2.60;;
20084;SDS011;10202;48.474;9.138;2024-02-26T11:08:13;5.50;;;2.95;;
20084;SDS011;10202;48.474;9.138;2024-02-26T11:10:39;9.45;;;3.80;;
20084;SDS011;10202;48.474;9.138;2024-02-26T11:13:05;6.40;;;3.40;;
20084;SDS011;10202;48.474;9.138;2024-02-26T11:15:31;4.13;;;2.85;;
20084;SDS011;10202;48.474;9.138;2024-02-26T11:17:58;4.70;;;2.70;;
20084;SDS011;10202;48.474;9.138;2024-02-26T11:20:29;10.05;;;3.13;;
20084;SDS011;10202;48.474;9.138;2024-02-26T11:22:56;4.75;;;2.92;;
20084;SDS011;10202;48.474;9.138;2024-02-26T11:25:21;5.38;;;2.25;;
20084;SDS011;10202;48.474;9.138;2024-02-26T11:27:51;3.47;;;2.50;;
20084;SDS011;10202;48.474;9.138;2024-02-26T11:30:23;5.40;;;2.60;;
20084;SDS011;10202;48.474;9.138;2024-02-26T11:32:52;4.25;;;2.47;;
20084;SDS011;10202;48.474;9.138;2024-02-26T11:35:18;4.85;;;2.45;;
20084;SDS011;10202;48.474;9.138;2024-02-26T11:37:53;4.40;;;2.90;;
20084;SDS011;10202;48.474;9.138;2024-02-26T11:40:21;4.30;;;2.58;;
20084;SDS011;10202;48.474;9.138;2024-02-26T11:42:57;3.78;;;2.90;;
20084;SDS011;10202;48.474;9.138;2024-02-26T11:48:20;5.10;;;2.83;;
20084;SDS011;10202;48.474;9.138;2024-02-26T11:50:49;7.18;;;2.42;;
20084;SDS011;10202;48.474;9.138;2024-02-26T11:58:57;6.20;;;2.80;;
20084;SDS011;10202;48.474;9.138;2024-02-26T12:01:46;5.25;;;2.67;;
20084;SDS011;10202;48.474;9.138;2024-02-26T12:04:17;4.53;;;2.60;;
20084;SDS011;10202;48.474;9.138;2024-02-26T12:07:01;3.25;;;2.20;;
20084;SDS011;10202;48.474;9.138;2024-02-26T12:09:34;6.57;;;2.45;;
20084;SDS011;10202;48.474;9.138;2024-02-26T12:12:13;4.50;;;2.75;;
20084;SDS011;10202;48.474;9.138;2024-02-26T12:14:53;4.18;;;2.85;;
20084;SDS011;10202;48.474;9.138;2024-02-26T12:17:24;5.40;;;2.50;;
20084;SDS011;10202;48.474;9.138;2024-02-26T12:19:53;8.32;;;3.15;;
20084;SDS011;10202;48.474;9.138;2024-02-26T12:22:21;3.20;;;2.33;;
20084;SDS011;10202;48.474;9.138;2024-02-26T12:24:57;3.92;;;2.20;;
20084;SDS011;10202;48.474;9.138;2024-02-26T12:27:24;4.93;;;2.10;;
20084;SDS011;10202;48.474;9.138;2024-02-26T12:29:52;4.32;;;2.58;;
20084;SDS011;10202;48.474;9.138;2024-02-26T12:32:23;3.30;;;2.35;;
20084;SDS011;10202;48.474;9.138;2024-02-26T12:34:49;7.28;;;2.55;;
20084;SDS011;10202;48.474;9.138;2024-02-26T12:37:15;3.35;;;2.20;;
20084;SDS011;10202;48.474;9.138;2024-02-26T12:39:41;7.50;;;2.80;;
20084;SDS011;10202;48.474;9.138;2024-02-26T12:42:07;3.20;;;2.50;;
20084;SDS011;10202;48.474;9.138;2024-02-26T12:44:33;5.20;;;2.15;;
20084;SDS011;10202;48.474;9.138;2024-02-26T12:47:02;7.10;;;2.50;;
20084;SDS011;10202;48.474;9.138;2024-02-26T12:49:29;4.15;;;2.17;;
20084;SDS011;10202;48.474;9.138;2024-02-26T12:51:56;4.97;;;2.40;;
20084;SDS011;10202;48.474;9.138;2024-02-26T12:54:30;3.70;;;2.33;;
20084;SDS011;10202;48.474;9.138;2024-02-26T12:56:57;4.45;;;2.30;;
20084;SDS011;10202;48.474;9.138;2024-02-26T12:59:24;5.38;;;2.85;;
20084;SDS011;10202;48.474;9.138;2024-02-26T13:01:49;3.33;;;3.00;;
20084;SDS011;10202;48.474;9.138;2024-02-26T13:04:15;6.20;;;4.43;;
20084;SDS011;10202;48.474;9.138;2024-02-26T13:06:41;3.97;;;3.35;;
20084;SDS011;10202;48.474;9.138;2024-02-26T13:09:07;3.35;;;2.22;;
20084;SDS011;10202;48.474;9.138;2024-02-26T13:11:34;2.90;;;1.98;;
20084;SDS011;10202;48.474;9.138;2024-02-26T13:14:02;3.65;;;1.92;;
20084;SDS011;10202;48.474;9.138;2024-02-26T13:16:31;1.80;;;1.45;;
20084;SDS011;10202;48.474;9.138;2024-02-26T13:19:19;2.42;;;1.70;;
20084;SDS011;10202;48.474;9.138;2024-02-26T13:21:44;2.88;;;2.05;;
20084;SDS011;10202;48.474;9.138;2024-02-26T13:24:12;1.85;;;1.70;;
20084;SDS011;10202;48.474;9.138;2024-02-26T13:26:38;1.98;;;1.40;;
20084;SDS011;10202;48.474;9.138;2024-02-26T13:29:04;4.65;;;2.00;;
20084;SDS011;10202;48.474;9.138;2024-02-26T13:31:30;3.50;;;1.50;;
20084;SDS011;10202;48.474;9.138;2024-02-26T13:33:57;1.90;;;1.50;;
20084;SDS011;10202;48.474;9.138;2024-02-26T13:36:23;5.07;;;2.00;;
20084;SDS011;10202;48.474;9.138;2024-02-26T13:38:52;2.67;;;1.65;;
20084;SDS011;10202;48.474;9.138;2024-02-26T13:41:19;5.85;;;3.33;;
20084;SDS011;10202;48.474;9.138;2024-02-26T13:43:46;4.72;;;2.10;;
20084;SDS011;10202;48.474;9.138;2024-02-26T13:46:12;6.05;;;2.70;;
20084;SDS011;10202;48.474;9.138;2024-02-26T13:48:41;9.48;;;4.47;;
20084;SDS011;10202;48.474;9.138;2024-02-26T13:51:07;6.00;;;3.72;;
20084;SDS011;10202;48.474;9.138;2024-02-26T13:53:35;2.72;;;1.70;;
20084;SDS011;10202;48.474;9.138;2024-02-26T13:56:01;4.07;;;2.30;;
20084;SDS011;10202;48.474;9.138;2024-02-26T13:58:30;4.78;;;2.10;;
20084;SDS011;10202;48.474;9.138;2024-02-26T14:00:56;3.63;;;2.03;;
20084;SDS011;10202;48.474;9.138;2024-02-26T14:03:22;5.88;;;1.92;;
20084;SDS011;10202;48.474;9.138;2024-02-26T14:05:47;7.32;;;1.73;;
20084;SDS011;10202;48.474;9.138;2024-02-26T14:08:13;2.60;;;1.30;;
20084;SDS011;10202;48.474;9.138;2024-02-26T14:10:45;5.15;;;1.30;;
20084;SDS011;10202;48.474;9.138;2024-02-26T14:13:10;2.83;;;1.25;;
20084;SDS011;10202;48.474;9.138;2024-02-26T14:15:36;3.42;;;1.13;;
20084;SDS011;10202;48.474;9.138;2024-02-26T14:18:03;3.58;;;1.92;;
20084;SDS011;10202;48.474;9.138;2024-02-26T14:20:32;10.15;;;1.20;;
20084;SDS011;10202;48.474;9.138;2024-02-26T14:22:58;1.85;;;1.20;;
20084;SDS011;10202;48.474;9.138;2024-02-26T14:25:24;1.70;;;1.00;;
20084;SDS011;10202;48.474;9.138;2024-02-26T14:27:54;0.82;;;0.80;;
20084;SDS011;10202;48.474;9.138;2024-02-26T14:30:26;1.13;;;0.80;;
20084;SDS011;10202;48.474;9.138;2024-02-26T14:32:52;4.45;;;2.10;;
20084;SDS011;10202;48.474;9.138;2024-02-26T14:35:17;2.67;;;1.52;;
20084;SDS011;10202;48.474;9.138;2024-02-26T14:37:45;1.85;;;1.40;;
20084;SDS011;10202;48.474;9.138;2024-02-26T14:40:17;1.60;;;1.20;;
20084;SDS011;10202;48.474;9.138;2024-02-26T14:42:45;9.48;;;1.40;;
20084;SDS011;10202;48.474;9.138;2024-02-26T14:45:11;3.25;;;1.30;;
20084;SDS011;10202;48.474;9.138;2024-02-26T14:47:37;1.70;;;1.10;;
20084;SDS011;10202;48.474;9.138;2024-02-26T14:50:05;2.15;;;0.90;;
20084;SDS011;10202;48.474;9.138;2024-02-26T14:52:31;1.45;;;0.90;;
20084;SDS011;10202;48.474;9.138;2024-02-26T14:54:59;1.40;;;1.10;;
20084;SDS011;10202;48.474;9.138;2024-02-26T14:57:27;1.83;;;1.00;;
20084;SDS011;10202;48.474;9.138;2024-02-26T14:59:52;1.77;;;0.93;;